sensor_id;sensor_type;location;lat;lon;timestamp;P1;durP1;ratioP1;P2;durP2;ratioP2
52858;SDS011;38721;53.098;6.596;2023-02-08T00:00:39;41.20;;;27.88;;
52858;SDS011;38721;53.098;6.596;2023-02-08T00:03:05;46.03;;;28.85;;
52858;SDS011;38721;53.098;6.596;2023-02-08T00:05:31;41.75;;;27.55;;
52858;SDS011;38721;53.098;6.596;2023-02-08T00:07:57;43.25;;;26.55;;
52858;SDS011;38721;53.098;6.596;2023-02-08T00:10:23;46.58;;;28.65;;
52858;SDS011;38721;53.098;6.596;2023-02-08T00:12:48;41.97;;;27.58;;
52858;SDS011;38721;53.098;6.596;2023-02-08T00:15:16;45.28;;;28.80;;
52858;SDS011;38721;53.098;6.596;2023-02-08T00:17:42;45.80;;;28.40;;
52858;SDS011;38721;53.098;6.596;2023-02-08T00:20:08;39.00;;;26.67;;
52858;SDS011;38721;53.098;6.596;2023-02-08T00:22:34;45.42;;;28.88;;
52858;SDS011;38721;53.098;6.596;2023-02-08T00:25:00;41.60;;;28.98;;
52858;SDS011;38721;53.098;6.596;2023-02-08T00:27:26;46.45;;;30.35;;
52858;SDS011;38721;53.098;6.596;2023-02-08T00:29:51;43.33;;;28.67;;
52858;SDS011;38721;53.098;6.596;2023-02-08T00:32:17;44.00;;;27.92;;
52858;SDS011;38721;53.098;6.596;2023-02-08T00:34:43;46.72;;;28.13;;
52858;SDS011;38721;53.098;6.596;2023-02-08T00:37:08;44.20;;;27.08;;
52858;SDS011;38721;53.098;6.596;2023-02-08T00:39:35;44.83;;;26.75;;
52858;SDS011;38721;53.098;6.596;2023-02-08T00:42:00;44.40;;;26.63;;
52858;SDS011;38721;53.098;6.596;2023-02-08T00:44:26;46.85;;;26.42;;
52858;SDS011;38721;53.098;6.596;2023-02-08T00:46:52;47.35;;;27.67;;
52858;SDS011;38721;53.098;6.596;2023-02-08T00:49:21;46.20;;;28.70;;
52858;SDS011;38721;53.098;6.596;2023-02-08T00:51:47;46.50;;;28.77;;
52858;SDS011;38721;53.098;6.596;2023-02-08T00:54:14;47.80;;;28.25;;
52858;SDS011;38721;53.098;6.596;2023-02-08T00:56:41;44.65;;;27.50;;
52858;SDS011;38721;53.098;6.596;2023-02-08T00:59:06;50.03;;;28.58;;
52858;SDS011;38721;53.098;6.596;2023-02-08T01:01:32;46.08;;;28.10;;
52858;SDS011;38721;53.098;6.596;2023-02-08T01:03:58;49.22;;;30.40;;
52858;SDS011;38721;53.098;6.596;2023-02-08T01:06:23;47.72;;;28.00;;
52858;SDS011;38721;53.098;6.596;2023-02-08T01:08:49;49.90;;;28.05;;
52858;SDS011;38721;53.098;6.596;2023-02-08T01:11:19;46.08;;;28.13;;
52858;SDS011;38721;53.098;6.596;2023-02-08T01:13:47;47.60;;;28.92;;
52858;SDS011;38721;53.098;6.596;2023-02-08T01:16:14;44.70;;;27.10;;
52858;SDS011;38721;53.098;6.596;2023-02-08T01:18:45;50.45;;;29.42;;
52858;SDS011;38721;53.098;6.596;2023-02-08T01:21:14;48.78;;;29.05;;
52858;SDS011;38721;53.098;6.596;2023-02-08T01:23:48;50.53;;;29.13;;
52858;SDS011;38721;53.098;6.596;2023-02-08T01:26:14;48.58;;;29.65;;
52858;SDS011;38721;53.098;6.596;2023-02-08T01:28:41;48.10;;;28.40;;
52858;SDS011;38721;53.098;6.596;2023-02-08T01:31:09;44.03;;;27.88;;
52858;SDS011;38721;53.098;6.596;2023-02-08T01:33:40;44.67;;;28.90;;
52858;SDS011;38721;53.098;6.596;2023-02-08T01:36:06;43.33;;;27.75;;
52858;SDS011;38721;53.098;6.596;2023-02-08T01:38:33;44.30;;;27.98;;
52858;SDS011;38721;53.098;6.596;2023-02-08T01:41:01;49.72;;;29.05;;
52858;SDS011;38721;53.098;6.596;2023-02-08T01:43:28;46.13;;;27.65;;
52858;SDS011;38721;53.098;6.596;2023-02-08T01:45:58;44.90;;;27.67;;
52858;SDS011;38721;53.098;6.596;2023-02-08T01:48:34;46.88;;;27.17;;
52858;SDS011;38721;53.098;6.596;2023-02-08T01:53:38;47.38;;;27.38;;
52858;SDS011;38721;53.098;6.596;2023-02-08T01:56:07;42.28;;;26.67;;
52858;SDS011;38721;53.098;6.596;2023-02-08T01:58:38;44.85;;;27.70;;
52858;SDS011;38721;53.098;6.596;2023-02-08T02:01:07;43.58;;;27.08;;
52858;SDS011;38721;53.098;6.596;2023-02-08T02:03:34;46.20;;;27.13;;
52858;SDS011;38721;53.098;6.596;2023-02-08T02:06:00;43.53;;;27.10;;
52858;SDS011;38721;53.098;6.596;2023-02-08T02:08:34;43.05;;;28.52;;
52858;SDS011;38721;53.098;6.596;2023-02-08T02:11:00;46.92;;;28.80;;
52858;SDS011;38721;53.098;6.596;2023-02-08T02:13:26;46.78;;;28.20;;
52858;SDS011;38721;53.098;6.596;2023-02-08T02:15:52;40.80;;;26.25;;
52858;SDS011;38721;53.098;6.596;2023-02-08T02:18:21;46.20;;;26.67;;
52858;SDS011;38721;53.098;6.596;2023-02-08T02:41:40;48.35;;;32.25;;
52858;SDS011;38721;53.098;6.596;2023-02-08T02:47:28;47.97;;;31.98;;
52858;SDS011;38721;53.098;6.596;2023-02-08T02:50:22;47.10;;;32.88;;
52858;SDS011;38721;53.098;6.596;2023-02-08T02:53:05;49.38;;;32.72;;
52858;SDS011;38721;53.098;6.596;2023-02-08T02:55:54;49.17;;;33.78;;
52858;SDS011;38721;53.098;6.596;2023-02-08T02:58:26;49.15;;;32.53;;
52858;SDS011;38721;53.098;6.596;2023-02-08T03:00:55;46.70;;;33.08;;
52858;SDS011;38721;53.098;6.596;2023-02-08T03:03:23;50.90;;;34.50;;
52858;SDS011;38721;53.098;6.596;2023-02-08T03:05:55;50.08;;;32.72;;
52858;SDS011;38721;53.098;6.596;2023-02-08T03:11:50;50.92;;;33.30;;
52858;SDS011;38721;53.098;6.596;2023-02-08T03:14:57;50.75;;;34.08;;
52858;SDS011;38721;53.098;6.596;2023-02-08T03:17:33;50.65;;;34.72;;
52858;SDS011;38721;53.098;6.596;2023-02-08T03:20:09;52.65;;;34.70;;
52858;SDS011;38721;53.098;6.596;2023-02-08T03:23:23;53.45;;;33.63;;
52858;SDS011;38721;53.098;6.596;2023-02-08T03:25:32;50.28;;;34.65;;
52858;SDS011;38721;53.098;6.596;2023-02-08T03:33:42;51.60;;;33.78;;
52858;SDS011;38721;53.098;6.596;2023-02-08T03:36:20;55.65;;;34.13;;
52858;SDS011;38721;53.098;6.596;2023-02-08T03:41:19;52.60;;;34.95;;
52858;SDS011;38721;53.098;6.596;2023-02-08T03:43:53;51.53;;;33.55;;
52858;SDS011;38721;53.098;6.596;2023-02-08T03:46:32;50.08;;;30.98;;
52858;SDS011;38721;53.098;6.596;2023-02-08T03:49:14;51.30;;;29.77;;
52858;SDS011;38721;53.098;6.596;2023-02-08T03:51:44;49.83;;;28.83;;
52858;SDS011;38721;53.098;6.596;2023-02-08T03:54:11;47.80;;;28.48;;
52858;SDS011;38721;53.098;6.596;2023-02-08T03:59:47;49.60;;;30.27;;
52858;SDS011;38721;53.098;6.596;2023-02-08T04:02:17;46.53;;;29.38;;
52858;SDS011;38721;53.098;6.596;2023-02-08T04:04:46;46.47;;;28.67;;
52858;SDS011;38721;53.098;6.596;2023-02-08T04:07:17;51.08;;;30.77;;
52858;SDS011;38721;53.098;6.596;2023-02-08T04:09:43;48.65;;;29.70;;
52858;SDS011;38721;53.098;6.596;2023-02-08T04:12:09;51.00;;;30.30;;
52858;SDS011;38721;53.098;6.596;2023-02-08T04:14:35;49.35;;;30.38;;
52858;SDS011;38721;53.098;6.596;2023-02-08T04:17:01;46.42;;;28.67;;
52858;SDS011;38721;53.098;6.596;2023-02-08T04:19:27;50.25;;;29.70;;
52858;SDS011;38721;53.098;6.596;2023-02-08T04:21:53;54.35;;;31.63;;
52858;SDS011;38721;53.098;6.596;2023-02-08T04:24:19;52.03;;;31.15;;
52858;SDS011;38721;53.098;6.596;2023-02-08T04:26:45;46.88;;;28.55;;
52858;SDS011;38721;53.098;6.596;2023-02-08T04:29:11;47.78;;;30.00;;
52858;SDS011;38721;53.098;6.596;2023-02-08T04:31:37;49.13;;;29.55;;
52858;SDS011;38721;53.098;6.596;2023-02-08T04:34:02;49.63;;;30.13;;
52858;SDS011;38721;53.098;6.596;2023-02-08T04:36:28;44.67;;;27.45;;
52858;SDS011;38721;53.098;6.596;2023-02-08T04:38:54;46.47;;;27.80;;
52858;SDS011;38721;53.098;6.596;2023-02-08T04:41:19;48.22;;;28.83;;
52858;SDS011;38721;53.098;6.596;2023-02-08T04:43:45;46.72;;;28.50;;
52858;SDS011;38721;53.098;6.596;2023-02-08T04:46:11;47.20;;;28.42;;
52858;SDS011;38721;53.098;6.596;2023-02-08T04:48:37;43.63;;;26.70;;
52858;SDS011;38721;53.098;6.596;2023-02-08T04:51:03;47.45;;;29.45;;
52858;SDS011;38721;53.098;6.596;2023-02-08T04:53:28;49.60;;;31.13;;
52858;SDS011;38721;53.098;6.596;2023-02-08T04:55:54;47.80;;;30.15;;
52858;SDS011;38721;53.098;6.596;2023-02-08T04:58:20;45.80;;;28.30;;
52858;SDS011;38721;53.098;6.596;2023-02-08T05:00:46;45.70;;;27.88;;
52858;SDS011;38721;53.098;6.596;2023-02-08T05:03:15;48.05;;;27.55;;
52858;SDS011;38721;53.098;6.596;2023-02-08T05:05:40;45.58;;;28.67;;
52858;SDS011;38721;53.098;6.596;2023-02-08T05:08:06;50.78;;;28.15;;
52858;SDS011;38721;53.098;6.596;2023-02-08T05:10:32;44.47;;;27.98;;
52858;SDS011;38721;53.098;6.596;2023-02-08T05:12:58;43.92;;;26.80;;
52858;SDS011;38721;53.098;6.596;2023-02-08T05:15:23;49.08;;;29.08;;
52858;SDS011;38721;53.098;6.596;2023-02-08T05:17:49;48.30;;;29.90;;
52858;SDS011;38721;53.098;6.596;2023-02-08T05:20:18;47.95;;;28.55;;
52858;SDS011;38721;53.098;6.596;2023-02-08T05:22:43;46.60;;;28.92;;
52858;SDS011;38721;53.098;6.596;2023-02-08T05:25:09;50.70;;;29.83;;
52858;SDS011;38721;53.098;6.596;2023-02-08T05:27:35;46.10;;;29.52;;
52858;SDS011;38721;53.098;6.596;2023-02-08T05:30:02;47.67;;;26.58;;
52858;SDS011;38721;53.098;6.596;2023-02-08T05:32:28;49.63;;;28.55;;
52858;SDS011;38721;53.098;6.596;2023-02-08T05:34:54;46.90;;;28.85;;
52858;SDS011;38721;53.098;6.596;2023-02-08T05:37:19;51.80;;;29.00;;
52858;SDS011;38721;53.098;6.596;2023-02-08T05:39:45;47.03;;;27.63;;
52858;SDS011;38721;53.098;6.596;2023-02-08T05:42:11;49.42;;;29.27;;
52858;SDS011;38721;53.098;6.596;2023-02-08T05:44:39;55.60;;;31.85;;
52858;SDS011;38721;53.098;6.596;2023-02-08T05:47:05;48.13;;;28.38;;
52858;SDS011;38721;53.098;6.596;2023-02-08T05:49:31;50.88;;;29.00;;
52858;SDS011;38721;53.098;6.596;2023-02-08T05:51:56;48.92;;;30.05;;
52858;SDS011;38721;53.098;6.596;2023-02-08T05:54:22;45.80;;;27.73;;
52858;SDS011;38721;53.098;6.596;2023-02-08T05:56:48;45.30;;;28.02;;
52858;SDS011;38721;53.098;6.596;2023-02-08T05:59:17;49.03;;;29.48;;
52858;SDS011;38721;53.098;6.596;2023-02-08T06:01:45;50.85;;;29.30;;
52858;SDS011;38721;53.098;6.596;2023-02-08T06:04:11;51.33;;;28.83;;
52858;SDS011;38721;53.098;6.596;2023-02-08T06:06:36;44.33;;;28.05;;
52858;SDS011;38721;53.098;6.596;2023-02-08T06:09:05;45.83;;;28.08;;
52858;SDS011;38721;53.098;6.596;2023-02-08T06:11:31;49.50;;;30.45;;
52858;SDS011;38721;53.098;6.596;2023-02-08T06:13:57;48.63;;;28.58;;
52858;SDS011;38721;53.098;6.596;2023-02-08T06:16:23;48.35;;;27.70;;
52858;SDS011;38721;53.098;6.596;2023-02-08T06:18:49;46.25;;;27.48;;
52858;SDS011;38721;53.098;6.596;2023-02-08T06:21:14;46.78;;;28.10;;
52858;SDS011;38721;53.098;6.596;2023-02-08T06:23:40;44.67;;;27.30;;
52858;SDS011;38721;53.098;6.596;2023-02-08T06:26:06;45.75;;;27.10;;
52858;SDS011;38721;53.098;6.596;2023-02-08T06:28:35;45.30;;;27.58;;
52858;SDS011;38721;53.098;6.596;2023-02-08T06:31:00;47.53;;;27.52;;
52858;SDS011;38721;53.098;6.596;2023-02-08T06:33:26;51.50;;;29.35;;
52858;SDS011;38721;53.098;6.596;2023-02-08T06:35:52;46.05;;;29.60;;
52858;SDS011;38721;53.098;6.596;2023-02-08T06:38:18;52.72;;;30.55;;
52858;SDS011;38721;53.098;6.596;2023-02-08T06:40:50;50.45;;;29.70;;
52858;SDS011;38721;53.098;6.596;2023-02-08T06:43:16;54.30;;;31.30;;
52858;SDS011;38721;53.098;6.596;2023-02-08T06:45:45;50.00;;;29.67;;
52858;SDS011;38721;53.098;6.596;2023-02-08T06:48:11;50.58;;;29.48;;
52858;SDS011;38721;53.098;6.596;2023-02-08T06:50:38;53.28;;;28.98;;
52858;SDS011;38721;53.098;6.596;2023-02-08T06:53:07;51.17;;;29.88;;
52858;SDS011;38721;53.098;6.596;2023-02-08T06:55:32;50.22;;;30.00;;
52858;SDS011;38721;53.098;6.596;2023-02-08T06:57:58;48.50;;;29.17;;
52858;SDS011;38721;53.098;6.596;2023-02-08T07:00:23;52.63;;;29.90;;
52858;SDS011;38721;53.098;6.596;2023-02-08T07:02:49;51.55;;;30.02;;
52858;SDS011;38721;53.098;6.596;2023-02-08T07:05:16;51.85;;;31.17;;
52858;SDS011;38721;53.098;6.596;2023-02-08T07:07:42;50.10;;;29.55;;
52858;SDS011;38721;53.098;6.596;2023-02-08T07:10:11;52.30;;;30.45;;
52858;SDS011;38721;53.098;6.596;2023-02-08T07:12:37;51.03;;;29.95;;
52858;SDS011;38721;53.098;6.596;2023-02-08T07:15:02;54.35;;;31.63;;
52858;SDS011;38721;53.098;6.596;2023-02-08T07:17:28;54.72;;;30.88;;
52858;SDS011;38721;53.098;6.596;2023-02-08T07:19:54;53.47;;;31.70;;
52858;SDS011;38721;53.098;6.596;2023-02-08T07:22:19;54.55;;;31.63;;
52858;SDS011;38721;53.098;6.596;2023-02-08T07:24:46;52.13;;;31.00;;
52858;SDS011;38721;53.098;6.596;2023-02-08T07:27:11;55.08;;;31.70;;
52858;SDS011;38721;53.098;6.596;2023-02-08T07:29:38;54.35;;;32.40;;
52858;SDS011;38721;53.098;6.596;2023-02-08T07:32:04;56.47;;;33.88;;
52858;SDS011;38721;53.098;6.596;2023-02-08T07:34:32;60.45;;;33.03;;
52858;SDS011;38721;53.098;6.596;2023-02-08T07:37:01;50.85;;;31.38;;
52858;SDS011;38721;53.098;6.596;2023-02-08T07:39:28;62.08;;;32.92;;
52858;SDS011;38721;53.098;6.596;2023-02-08T07:41:58;55.92;;;31.83;;
52858;SDS011;38721;53.098;6.596;2023-02-08T07:44:24;56.88;;;31.77;;
52858;SDS011;38721;53.098;6.596;2023-02-08T07:46:50;54.20;;;32.60;;
52858;SDS011;38721;53.098;6.596;2023-02-08T07:49:15;51.75;;;31.45;;
52858;SDS011;38721;53.098;6.596;2023-02-08T07:51:41;56.90;;;32.22;;
52858;SDS011;38721;53.098;6.596;2023-02-08T07:54:07;55.97;;;32.75;;
52858;SDS011;38721;53.098;6.596;2023-02-08T07:56:33;59.63;;;31.17;;
52858;SDS011;38721;53.098;6.596;2023-02-08T07:58:59;53.17;;;31.35;;
52858;SDS011;38721;53.098;6.596;2023-02-08T08:01:25;53.25;;;32.38;;
52858;SDS011;38721;53.098;6.596;2023-02-08T08:03:51;51.83;;;30.30;;
52858;SDS011;38721;53.098;6.596;2023-02-08T08:06:20;52.53;;;30.75;;
52858;SDS011;38721;53.098;6.596;2023-02-08T08:08:47;54.35;;;30.27;;
52858;SDS011;38721;53.098;6.596;2023-02-08T08:11:16;52.78;;;31.05;;
52858;SDS011;38721;53.098;6.596;2023-02-08T08:13:43;51.40;;;30.13;;
52858;SDS011;38721;53.098;6.596;2023-02-08T08:16:09;49.78;;;30.40;;
52858;SDS011;38721;53.098;6.596;2023-02-08T08:18:35;48.85;;;30.30;;
52858;SDS011;38721;53.098;6.596;2023-02-08T08:21:01;49.38;;;29.85;;
52858;SDS011;38721;53.098;6.596;2023-02-08T08:23:27;53.80;;;30.20;;
52858;SDS011;38721;53.098;6.596;2023-02-08T08:25:57;50.42;;;30.27;;
52858;SDS011;38721;53.098;6.596;2023-02-08T08:28:23;49.20;;;29.48;;
52858;SDS011;38721;53.098;6.596;2023-02-08T08:30:50;49.15;;;28.77;;
52858;SDS011;38721;53.098;6.596;2023-02-08T08:33:16;48.63;;;29.05;;
52858;SDS011;38721;53.098;6.596;2023-02-08T08:35:41;44.92;;;28.52;;
52858;SDS011;38721;53.098;6.596;2023-02-08T08:38:11;47.60;;;27.45;;
52858;SDS011;38721;53.098;6.596;2023-02-08T08:40:36;48.15;;;29.05;;
52858;SDS011;38721;53.098;6.596;2023-02-08T08:43:02;42.80;;;26.88;;
52858;SDS011;38721;53.098;6.596;2023-02-08T08:45:28;40.70;;;26.08;;
52858;SDS011;38721;53.098;6.596;2023-02-08T08:47:53;43.58;;;26.25;;
52858;SDS011;38721;53.098;6.596;2023-02-08T08:50:25;38.38;;;25.38;;
52858;SDS011;38721;53.098;6.596;2023-02-08T08:52:50;44.58;;;27.27;;
52858;SDS011;38721;53.098;6.596;2023-02-08T08:55:16;41.10;;;24.85;;
52858;SDS011;38721;53.098;6.596;2023-02-08T08:57:42;38.58;;;24.42;;
52858;SDS011;38721;53.098;6.596;2023-02-08T09:00:08;38.60;;;24.60;;
52858;SDS011;38721;53.098;6.596;2023-02-08T09:02:34;36.70;;;23.83;;
52858;SDS011;38721;53.098;6.596;2023-02-08T09:05:00;35.17;;;22.85;;
52858;SDS011;38721;53.098;6.596;2023-02-08T09:07:28;35.47;;;22.67;;
52858;SDS011;38721;53.098;6.596;2023-02-08T09:09:54;38.20;;;23.02;;
52858;SDS011;38721;53.098;6.596;2023-02-08T09:12:19;34.03;;;22.60;;
52858;SDS011;38721;53.098;6.596;2023-02-08T09:14:48;33.28;;;21.38;;
52858;SDS011;38721;53.098;6.596;2023-02-08T09:17:14;34.20;;;22.58;;
52858;SDS011;38721;53.098;6.596;2023-02-08T09:19:39;35.67;;;22.33;;
52858;SDS011;38721;53.098;6.596;2023-02-08T09:22:06;34.03;;;21.23;;
52858;SDS011;38721;53.098;6.596;2023-02-08T09:24:32;32.17;;;22.15;;
52858;SDS011;38721;53.098;6.596;2023-02-08T09:26:58;33.95;;;22.50;;
52858;SDS011;38721;53.098;6.596;2023-02-08T09:29:24;31.42;;;20.40;;
52858;SDS011;38721;53.098;6.596;2023-02-08T09:31:53;32.15;;;20.90;;
52858;SDS011;38721;53.098;6.596;2023-02-08T09:34:19;33.17;;;20.35;;
52858;SDS011;38721;53.098;6.596;2023-02-08T09:36:45;30.15;;;20.45;;
52858;SDS011;38721;53.098;6.596;2023-02-08T09:39:20;30.63;;;19.95;;
52858;SDS011;38721;53.098;6.596;2023-02-08T09:50:10;31.15;;;19.65;;
52858;SDS011;38721;53.098;6.596;2023-02-08T09:55:41;32.42;;;19.98;;
52858;SDS011;38721;53.098;6.596;2023-02-08T09:58:25;28.17;;;19.55;;
52858;SDS011;38721;53.098;6.596;2023-02-08T10:00:59;26.45;;;18.17;;
52858;SDS011;38721;53.098;6.596;2023-02-08T10:03:28;30.60;;;19.05;;
52858;SDS011;38721;53.098;6.596;2023-02-08T10:05:59;27.17;;;18.13;;
52858;SDS011;38721;53.098;6.596;2023-02-08T10:08:25;27.92;;;18.45;;
52858;SDS011;38721;53.098;6.596;2023-02-08T10:10:54;26.58;;;16.75;;
52858;SDS011;38721;53.098;6.596;2023-02-08T10:18:42;24.75;;;15.85;;
52858;SDS011;38721;53.098;6.596;2023-02-08T10:21:58;22.95;;;16.25;;
52858;SDS011;38721;53.098;6.596;2023-02-08T10:24:42;26.90;;;17.35;;
52858;SDS011;38721;53.098;6.596;2023-02-08T10:28:06;23.42;;;16.05;;
52858;SDS011;38721;53.098;6.596;2023-02-08T10:30:32;23.70;;;16.33;;
52858;SDS011;38721;53.098;6.596;2023-02-08T10:33:09;24.27;;;16.13;;
52858;SDS011;38721;53.098;6.596;2023-02-08T10:35:43;24.35;;;15.88;;
52858;SDS011;38721;53.098;6.596;2023-02-08T10:40:43;22.75;;;15.20;;
52858;SDS011;38721;53.098;6.596;2023-02-08T10:46:19;21.90;;;14.35;;
52858;SDS011;38721;53.098;6.596;2023-02-08T10:51:41;19.15;;;13.43;;
52858;SDS011;38721;53.098;6.596;2023-02-08T10:54:10;17.25;;;12.60;;
52858;SDS011;38721;53.098;6.596;2023-02-08T11:01:46;17.23;;;10.85;;
52858;SDS011;38721;53.098;6.596;2023-02-08T11:04:14;15.93;;;11.20;;
52858;SDS011;38721;53.098;6.596;2023-02-08T11:06:41;15.05;;;10.80;;
52858;SDS011;38721;53.098;6.596;2023-02-08T11:09:18;14.45;;;10.35;;
52858;SDS011;38721;53.098;6.596;2023-02-08T11:11:44;15.60;;;10.23;;
52858;SDS011;38721;53.098;6.596;2023-02-08T11:14:15;14.18;;;10.07;;
52858;SDS011;38721;53.098;6.596;2023-02-08T11:16:49;12.68;;;9.10;;
52858;SDS011;38721;53.098;6.596;2023-02-08T11:21:47;14.35;;;9.63;;
52858;SDS011;38721;53.098;6.596;2023-02-08T11:24:34;13.20;;;9.38;;
52858;SDS011;38721;53.098;6.596;2023-02-08T11:27:15;16.63;;;9.88;;
52858;SDS011;38721;53.098;6.596;2023-02-08T11:29:42;13.52;;;9.02;;
52858;SDS011;38721;53.098;6.596;2023-02-08T11:32:16;13.32;;;9.82;;
52858;SDS011;38721;53.098;6.596;2023-02-08T11:34:42;14.02;;;9.15;;
52858;SDS011;38721;53.098;6.596;2023-02-08T11:37:16;13.10;;;9.68;;
52858;SDS011;38721;53.098;6.596;2023-02-08T11:39:54;14.05;;;10.27;;
52858;SDS011;38721;53.098;6.596;2023-02-08T11:42:28;14.75;;;9.88;;
52858;SDS011;38721;53.098;6.596;2023-02-08T11:44:59;14.25;;;9.85;;
52858;SDS011;38721;53.098;6.596;2023-02-08T11:47:29;11.93;;;8.55;;
52858;SDS011;38721;53.098;6.596;2023-02-08T11:49:58;11.75;;;7.82;;
52858;SDS011;38721;53.098;6.596;2023-02-08T11:52:26;10.98;;;7.93;;
52858;SDS011;38721;53.098;6.596;2023-02-08T11:57:53;14.02;;;7.30;;
52858;SDS011;38721;53.098;6.596;2023-02-08T12:00:28;10.25;;;7.55;;
52858;SDS011;38721;53.098;6.596;2023-02-08T12:02:58;9.82;;;7.10;;
52858;SDS011;38721;53.098;6.596;2023-02-08T12:08:29;7.47;;;6.07;;
52858;SDS011;38721;53.098;6.596;2023-02-08T12:11:10;8.95;;;6.28;;
52858;SDS011;38721;53.098;6.596;2023-02-08T12:19:36;7.65;;;5.75;;
52858;SDS011;38721;53.098;6.596;2023-02-08T12:22:37;9.90;;;5.90;;
52858;SDS011;38721;53.098;6.596;2023-02-08T12:28:15;8.23;;;5.53;;
52858;SDS011;38721;53.098;6.596;2023-02-08T12:30:57;7.55;;;5.93;;
52858;SDS011;38721;53.098;6.596;2023-02-08T12:33:42;7.40;;;5.35;;
52858;SDS011;38721;53.098;6.596;2023-02-08T12:41:46;7.90;;;6.10;;
52858;SDS011;38721;53.098;6.596;2023-02-08T12:55:17;9.63;;;6.38;;
52858;SDS011;38721;53.098;6.596;2023-02-08T12:57:50;8.82;;;6.18;;
52858;SDS011;38721;53.098;6.596;2023-02-08T13:03:09;8.70;;;5.72;;
52858;SDS011;38721;53.098;6.596;2023-02-08T13:05:42;7.78;;;5.75;;
52858;SDS011;38721;53.098;6.596;2023-02-08T13:08:15;8.25;;;5.50;;
52858;SDS011;38721;53.098;6.596;2023-02-08T13:10:55;8.65;;;6.32;;
52858;SDS011;38721;53.098;6.596;2023-02-08T13:13:33;7.95;;;5.72;;
52858;SDS011;38721;53.098;6.596;2023-02-08T13:16:04;9.50;;;5.88;;
52858;SDS011;38721;53.098;6.596;2023-02-08T13:18:42;10.10;;;5.90;;
52858;SDS011;38721;53.098;6.596;2023-02-08T13:21:13;7.50;;;5.80;;
52858;SDS011;38721;53.098;6.596;2023-02-08T13:23:42;8.57;;;6.13;;
52858;SDS011;38721;53.098;6.596;2023-02-08T13:26:15;8.13;;;5.65;;
52858;SDS011;38721;53.098;6.596;2023-02-08T13:28:55;8.95;;;6.05;;
52858;SDS011;38721;53.098;6.596;2023-02-08T13:31:23;8.30;;;6.22;;
52858;SDS011;38721;53.098;6.596;2023-02-08T13:33:57;9.65;;;5.50;;
52858;SDS011;38721;53.098;6.596;2023-02-08T13:36:35;8.10;;;6.30;;
52858;SDS011;38721;53.098;6.596;2023-02-08T13:39:04;8.80;;;6.03;;
52858;SDS011;38721;53.098;6.596;2023-02-08T13:41:33;9.98;;;6.15;;
52858;SDS011;38721;53.098;6.596;2023-02-08T13:44:06;9.45;;;5.72;;
52858;SDS011;38721;53.098;6.596;2023-02-08T13:46:45;9.10;;;5.70;;
52858;SDS011;38721;53.098;6.596;2023-02-08T14:00:28;8.88;;;6.10;;
52858;SDS011;38721;53.098;6.596;2023-02-08T14:05:46;8.93;;;5.93;;
52858;SDS011;38721;53.098;6.596;2023-02-08T14:11:14;10.30;;;6.32;;
52858;SDS011;38721;53.098;6.596;2023-02-08T14:13:54;6.38;;;5.45;;
52858;SDS011;38721;53.098;6.596;2023-02-08T14:16:31;7.22;;;5.40;;
52858;SDS011;38721;53.098;6.596;2023-02-08T14:24:04;5.95;;;4.90;;
52858;SDS011;38721;53.098;6.596;2023-02-08T14:26:33;6.10;;;4.95;;
52858;SDS011;38721;53.098;6.596;2023-02-08T14:29:01;9.63;;;5.38;;
52858;SDS011;38721;53.098;6.596;2023-02-08T14:31:37;6.15;;;4.85;;
52858;SDS011;38721;53.098;6.596;2023-02-08T14:37:01;6.80;;;5.32;;
52858;SDS011;38721;53.098;6.596;2023-02-08T14:40:22;8.75;;;5.43;;
52858;SDS011;38721;53.098;6.596;2023-02-08T14:43:01;6.57;;;4.97;;
52858;SDS011;38721;53.098;6.596;2023-02-08T14:45:32;5.53;;;4.93;;
52858;SDS011;38721;53.098;6.596;2023-02-08T14:50:29;5.95;;;4.82;;
52858;SDS011;38721;53.098;6.596;2023-02-08T14:53:01;6.00;;;5.15;;
52858;SDS011;38721;53.098;6.596;2023-02-08T14:58:23;6.05;;;5.05;;
52858;SDS011;38721;53.098;6.596;2023-02-08T15:00:56;7.00;;;4.65;;
52858;SDS011;38721;53.098;6.596;2023-02-08T15:03:26;5.80;;;4.78;;
52858;SDS011;38721;53.098;6.596;2023-02-08T15:08:57;6.32;;;4.93;;
52858;SDS011;38721;53.098;6.596;2023-02-08T15:11:25;6.70;;;4.70;;
52858;SDS011;38721;53.098;6.596;2023-02-08T15:13:55;5.80;;;4.78;;
52858;SDS011;38721;53.098;6.596;2023-02-08T15:16:23;5.78;;;4.28;;
52858;SDS011;38721;53.098;6.596;2023-02-08T15:18:56;5.22;;;4.45;;
52858;SDS011;38721;53.098;6.596;2023-02-08T15:21:22;5.57;;;4.72;;
52858;SDS011;38721;53.098;6.596;2023-02-08T15:23:59;5.97;;;4.50;;
52858;SDS011;38721;53.098;6.596;2023-02-08T15:26:32;5.80;;;4.53;;
52858;SDS011;38721;53.098;6.596;2023-02-08T15:28:58;8.52;;;4.60;;
52858;SDS011;38721;53.098;6.596;2023-02-08T15:31:34;5.60;;;4.30;;
52858;SDS011;38721;53.098;6.596;2023-02-08T15:36:30;7.57;;;4.70;;
52858;SDS011;38721;53.098;6.596;2023-02-08T15:38:59;5.70;;;4.82;;
52858;SDS011;38721;53.098;6.596;2023-02-08T15:41:31;6.07;;;5.00;;
52858;SDS011;38721;53.098;6.596;2023-02-08T15:46:45;7.90;;;5.30;;
52858;SDS011;38721;53.098;6.596;2023-02-08T15:49:13;8.05;;;5.63;;
52858;SDS011;38721;53.098;6.596;2023-02-08T15:51:41;6.70;;;5.53;;
52858;SDS011;38721;53.098;6.596;2023-02-08T15:54:15;6.93;;;5.38;;
52858;SDS011;38721;53.098;6.596;2023-02-08T15:56:50;7.97;;;6.60;;
52858;SDS011;38721;53.098;6.596;2023-02-08T15:59:21;8.88;;;6.68;;
52858;SDS011;38721;53.098;6.596;2023-02-08T16:01:49;8.32;;;6.35;;
52858;SDS011;38721;53.098;6.596;2023-02-08T16:04:16;9.38;;;6.50;;
52858;SDS011;38721;53.098;6.596;2023-02-08T16:06:50;7.50;;;5.88;;
52858;SDS011;38721;53.098;6.596;2023-02-08T16:09:25;10.57;;;5.80;;
52858;SDS011;38721;53.098;6.596;2023-02-08T16:11:57;8.20;;;5.50;;
52858;SDS011;38721;53.098;6.596;2023-02-08T16:14:24;8.25;;;5.63;;
52858;SDS011;38721;53.098;6.596;2023-02-08T16:16:56;8.70;;;6.00;;
52858;SDS011;38721;53.098;6.596;2023-02-08T16:19:26;8.02;;;6.07;;
52858;SDS011;38721;53.098;6.596;2023-02-08T16:21:54;10.60;;;6.25;;
52858;SDS011;38721;53.098;6.596;2023-02-08T16:24:36;7.88;;;5.35;;
52858;SDS011;38721;53.098;6.596;2023-02-08T16:27:05;9.70;;;5.90;;
52858;SDS011;38721;53.098;6.596;2023-02-08T16:29:44;6.82;;;5.20;;
52858;SDS011;38721;53.098;6.596;2023-02-08T16:32:30;10.00;;;6.75;;
52858;SDS011;38721;53.098;6.596;2023-02-08T16:34:59;9.05;;;6.03;;
52858;SDS011;38721;53.098;6.596;2023-02-08T16:37:39;9.82;;;6.10;;
52858;SDS011;38721;53.098;6.596;2023-02-08T16:48:44;11.50;;;6.93;;
52858;SDS011;38721;53.098;6.596;2023-02-08T16:51:14;8.77;;;6.50;;
52858;SDS011;38721;53.098;6.596;2023-02-08T16:53:42;10.55;;;6.95;;
52858;SDS011;38721;53.098;6.596;2023-02-08T16:56:11;11.30;;;7.28;;
52858;SDS011;38721;53.098;6.596;2023-02-08T16:58:36;11.48;;;7.45;;
52858;SDS011;38721;53.098;6.596;2023-02-08T17:01:02;10.18;;;7.05;;
52858;SDS011;38721;53.098;6.596;2023-02-08T17:03:28;10.90;;;6.88;;
52858;SDS011;38721;53.098;6.596;2023-02-08T17:05:54;9.38;;;6.80;;
52858;SDS011;38721;53.098;6.596;2023-02-08T17:08:20;9.32;;;6.70;;
52858;SDS011;38721;53.098;6.596;2023-02-08T17:10:46;9.05;;;6.47;;
52858;SDS011;38721;53.098;6.596;2023-02-08T17:13:15;9.68;;;6.63;;
52858;SDS011;38721;53.098;6.596;2023-02-08T17:15:42;9.38;;;6.47;;
52858;SDS011;38721;53.098;6.596;2023-02-08T17:18:11;10.90;;;7.38;;